OPA Logo
 
ASOS:
At:2020.12.04 1015 UTC
Wind:210° @ 4KT
Viz: 10 mile(s)
Sky: clear
Temp: 30 F (-1 C)
DewP: 24 F (-4 C):1
RH: 23 F (-5 C)
Baro: 23 F (-5 C)
ob: KBDN 041015Z AUTO 21004KT 10SM CLR M01/M05 A3043 RMK AO2

ASOS: KRDM
At:2020.12.04 0956 UTC
Wind:140° @ 4KT
Viz: 10 mile(s)
Sky: clear
Temp: 27.0 F (-2.8 C)
DewP: 21 F (-6 C):1
RH: 21.0 F (-6.1 C)
Baro: 21.0 F (-6.1 C)
ob: KRDM 040956Z AUTO 14004KT 10SM CLR M03/M06 A3042 RMK AO2 SLP322 T10281061
Apache-SSL Logo

Valid HTML 4.01!

Central Oregon OPA Chapter

Calendar


Other Calendar pages

Oregon Pilots Association Events Calendar

Washington Pilots Association Events


Web page by: gem@rellim.com